sensor_id;sensor_type;location;lat;lon;timestamp;P1;P2;P0
58740;PMS7003;44512;53.046;18.604;2022-11-09T00:03:59;44;35;23
58740;PMS7003;44512;53.046;18.604;2022-11-09T00:14:27;47;37;25
58740;PMS7003;44512;53.046;18.604;2022-11-09T00:24:55;43;33;22
58740;PMS7003;44512;53.046;18.604;2022-11-09T00:35:24;47;36;23
58740;PMS7003;44512;53.046;18.604;2022-11-09T00:45:52;51;36;24
58740;PMS7003;44512;53.046;18.604;2022-11-09T00:56:21;46;33;22
58740;PMS7003;44512;53.046;18.604;2022-11-09T01:06:49;46;35;24
58740;PMS7003;44512;53.046;18.604;2022-11-09T01:17:17;40;33;23
58740;PMS7003;44512;53.046;18.604;2022-11-09T01:27:46;44;35;24
58740;PMS7003;44512;53.046;18.604;2022-11-09T01:38:14;45;34;23
58740;PMS7003;44512;53.046;18.604;2022-11-09T01:48:44;42;34;24
58740;PMS7003;44512;53.046;18.604;2022-11-09T01:59:13;48;36;25
58740;PMS7003;44512;53.046;18.604;2022-11-09T02:09:42;42;35;24
58740;PMS7003;44512;53.046;18.604;2022-11-09T02:20:09;47;36;25
58740;PMS7003;44512;53.046;18.604;2022-11-09T02:30:37;43;36;26
58740;PMS7003;44512;53.046;18.604;2022-11-09T02:41:05;42;35;24
58740;PMS7003;44512;53.046;18.604;2022-11-09T02:51:33;48;35;24
58740;PMS7003;44512;53.046;18.604;2022-11-09T03:02:02;45;37;25
58740;PMS7003;44512;53.046;18.604;2022-11-09T03:12:30;45;38;26
58740;PMS7003;44512;53.046;18.604;2022-11-09T03:22:58;43;34;25
58740;PMS7003;44512;53.046;18.604;2022-11-09T03:33:27;45;33;22
58740;PMS7003;44512;53.046;18.604;2022-11-09T03:43:55;43;32;22
58740;PMS7003;44512;53.046;18.604;2022-11-09T03:54:24;46;35;24
58740;PMS7003;44512;53.046;18.604;2022-11-09T04:04:52;45;34;23
58740;PMS7003;44512;53.046;18.604;2022-11-09T04:15:20;43;36;23
58740;PMS7003;44512;53.046;18.604;2022-11-09T04:25:49;42;33;22
58740;PMS7003;44512;53.046;18.604;2022-11-09T04:36:17;38;31;20
58740;PMS7003;44512;53.046;18.604;2022-11-09T04:46:46;42;32;24
58740;PMS7003;44512;53.046;18.604;2022-11-09T04:57:14;46;33;23
58740;PMS7003;44512;53.046;18.604;2022-11-09T05:07:43;38;31;22
58740;PMS7003;44512;53.046;18.604;2022-11-09T05:18:11;42;33;21
58740;PMS7003;44512;53.046;18.604;2022-11-09T05:28:40;44;31;22
58740;PMS7003;44512;53.046;18.604;2022-11-09T05:39:08;35;30;22
58740;PMS7003;44512;53.046;18.604;2022-11-09T05:49:36;40;32;21
58740;PMS7003;44512;53.046;18.604;2022-11-09T06:00:08;45;33;23
58740;PMS7003;44512;53.046;18.604;2022-11-09T06:10:33;40;33;23
58740;PMS7003;44512;53.046;18.604;2022-11-09T06:21:02;43;33;19
58740;PMS7003;44512;53.046;18.604;2022-11-09T06:31:30;42;33;22
58740;PMS7003;44512;53.046;18.604;2022-11-09T06:41:58;43;33;23
58740;PMS7003;44512;53.046;18.604;2022-11-09T06:52:27;43;34;24
58740;PMS7003;44512;53.046;18.604;2022-11-09T07:02:55;47;36;25
58740;PMS7003;44512;53.046;18.604;2022-11-09T07:13:24;44;35;24
58740;PMS7003;44512;53.046;18.604;2022-11-09T07:23:52;44;35;23
58740;PMS7003;44512;53.046;18.604;2022-11-09T07:34:20;45;34;22
58740;PMS7003;44512;53.046;18.604;2022-11-09T07:44:49;43;36;22
58740;PMS7003;44512;53.046;18.604;2022-11-09T07:55:17;40;33;21
58740;PMS7003;44512;53.046;18.604;2022-11-09T08:05:46;47;33;23
58740;PMS7003;44512;53.046;18.604;2022-11-09T08:16:15;43;32;22
58740;PMS7003;44512;53.046;18.604;2022-11-09T08:26:42;39;34;22
58740;PMS7003;44512;53.046;18.604;2022-11-09T08:37:11;37;32;22
58740;PMS7003;44512;53.046;18.604;2022-11-09T08:47:40;40;33;22
58740;PMS7003;44512;53.046;18.604;2022-11-09T08:58:08;40;32;20
58740;PMS7003;44512;53.046;18.604;2022-11-09T09:08:36;40;30;21
58740;PMS7003;44512;53.046;18.604;2022-11-09T09:19:05;34;30;20
58740;PMS7003;44512;53.046;18.604;2022-11-09T09:29:33;33;28;19
58740;PMS7003;44512;53.046;18.604;2022-11-09T09:40:01;38;31;21
58740;PMS7003;44512;53.046;18.604;2022-11-09T09:50:38;39;33;21
58740;PMS7003;44512;53.046;18.604;2022-11-09T10:32:24;39;32;20
58740;PMS7003;44512;53.046;18.604;2022-11-09T10:42:55;43;34;22
58740;PMS7003;44512;53.046;18.604;2022-11-09T10:53:21;35;30;20
58740;PMS7003;44512;53.046;18.604;2022-11-09T11:03:52;31;24;17
58740;PMS7003;44512;53.046;18.604;2022-11-09T11:14:18;41;30;20
58740;PMS7003;44512;53.046;18.604;2022-11-09T11:24:50;34;27;17
58740;PMS7003;44512;53.046;18.604;2022-11-09T11:35:15;36;28;19
58740;PMS7003;44512;53.046;18.604;2022-11-09T11:45:52;37;29;19
58740;PMS7003;44512;53.046;18.604;2022-11-09T11:56:17;39;29;18
58740;PMS7003;44512;53.046;18.604;2022-11-09T12:06:45;30;27;18
58740;PMS7003;44512;53.046;18.604;2022-11-09T12:17:12;36;29;19
58740;PMS7003;44512;53.046;18.604;2022-11-09T12:38:09;37;31;21
58740;PMS7003;44512;53.046;18.604;2022-11-09T12:48:33;37;28;19
58740;PMS7003;44512;53.046;18.604;2022-11-09T13:09:29;38;30;20
58740;PMS7003;44512;53.046;18.604;2022-11-09T13:19:58;37;31;20
58740;PMS7003;44512;53.046;18.604;2022-11-09T13:40:55;34;30;20
58740;PMS7003;44512;53.046;18.604;2022-11-09T14:01:52;37;30;20
58740;PMS7003;44512;53.046;18.604;2022-11-09T14:22:48;38;29;20
58740;PMS7003;44512;53.046;18.604;2022-11-09T14:43:45;42;34;23
58740;PMS7003;44512;53.046;18.604;2022-11-09T14:54:14;38;33;21
58740;PMS7003;44512;53.046;18.604;2022-11-09T15:15:17;43;33;22
58740;PMS7003;44512;53.046;18.604;2022-11-09T15:46:43;47;39;25
58740;PMS7003;44512;53.046;18.604;2022-11-09T15:57:04;43;36;25
58740;PMS7003;44512;53.046;18.604;2022-11-09T16:07:32;47;38;25
58740;PMS7003;44512;53.046;18.604;2022-11-09T16:18:00;53;40;26
58740;PMS7003;44512;53.046;18.604;2022-11-09T16:28:29;50;37;24
58740;PMS7003;44512;53.046;18.604;2022-11-09T16:38:57;53;40;27
58740;PMS7003;44512;53.046;18.604;2022-11-09T16:54:39;45;37;24
58740;PMS7003;44512;53.046;18.604;2022-11-09T17:05:08;47;37;23
58740;PMS7003;44512;53.046;18.604;2022-11-09T17:26:05;50;38;24
58740;PMS7003;44512;53.046;18.604;2022-11-09T17:36:33;55;41;27
58740;PMS7003;44512;53.046;18.604;2022-11-09T17:47:02;45;39;26
58740;PMS7003;44512;53.046;18.604;2022-11-09T17:57:30;55;40;27
58740;PMS7003;44512;53.046;18.604;2022-11-09T18:07:59;54;41;27
58740;PMS7003;44512;53.046;18.604;2022-11-09T18:18:27;53;39;25
58740;PMS7003;44512;53.046;18.604;2022-11-09T18:28:55;49;39;25
58740;PMS7003;44512;53.046;18.604;2022-11-09T18:39:23;51;40;26
58740;PMS7003;44512;53.046;18.604;2022-11-09T18:49:52;50;38;25
58740;PMS7003;44512;53.046;18.604;2022-11-09T19:00:20;48;38;24
58740;PMS7003;44512;53.046;18.604;2022-11-09T19:10:49;49;39;24
58740;PMS7003;44512;53.046;18.604;2022-11-09T19:31:46;47;37;25
58740;PMS7003;44512;53.046;18.604;2022-11-09T19:42:15;59;42;27
58740;PMS7003;44512;53.046;18.604;2022-11-09T19:52:42;51;40;25
58740;PMS7003;44512;53.046;18.604;2022-11-09T20:03:11;51;40;26
58740;PMS7003;44512;53.046;18.604;2022-11-09T20:13:39;51;41;26
58740;PMS7003;44512;53.046;18.604;2022-11-09T20:24:08;51;41;26
58740;PMS7003;44512;53.046;18.604;2022-11-09T20:34:36;55;42;27
58740;PMS7003;44512;53.046;18.604;2022-11-09T20:45:05;51;42;26
58740;PMS7003;44512;53.046;18.604;2022-11-09T20:55:37;54;42;28
58740;PMS7003;44512;53.046;18.604;2022-11-09T21:06:02;57;40;26
58740;PMS7003;44512;53.046;18.604;2022-11-09T21:16:30;56;42;28
58740;PMS7003;44512;53.046;18.604;2022-11-09T21:26:58;49;38;27
58740;PMS7003;44512;53.046;18.604;2022-11-09T21:37:26;54;40;25
58740;PMS7003;44512;53.046;18.604;2022-11-09T21:47:55;52;39;26
58740;PMS7003;44512;53.046;18.604;2022-11-09T21:58:23;59;42;27
58740;PMS7003;44512;53.046;18.604;2022-11-09T22:08:52;50;40;27
58740;PMS7003;44512;53.046;18.604;2022-11-09T22:19:21;53;41;26
58740;PMS7003;44512;53.046;18.604;2022-11-09T22:29:49;56;42;27
58740;PMS7003;44512;53.046;18.604;2022-11-09T22:40:17;54;41;28
58740;PMS7003;44512;53.046;18.604;2022-11-09T22:50:45;61;43;28
58740;PMS7003;44512;53.046;18.604;2022-11-09T23:01:15;54;40;26
58740;PMS7003;44512;53.046;18.604;2022-11-09T23:11:42;58;41;26
58740;PMS7003;44512;53.046;18.604;2022-11-09T23:22:11;62;45;29
58740;PMS7003;44512;53.046;18.604;2022-11-09T23:32:39;54;42;28
58740;PMS7003;44512;53.046;18.604;2022-11-09T23:43:09;55;43;29
58740;PMS7003;44512;53.046;18.604;2022-11-09T23:53:36;56;42;28
